createdAt,value
2023-12-11T00:01:46.746Z,98985.00
2023-12-11T00:04:20.468Z,98988.60
2023-12-11T00:06:56.263Z,98995.00
2023-12-11T00:09:30.377Z,98998.60
2023-12-11T00:12:04.368Z,99000.20
2023-12-11T00:14:39.150Z,99005.00
2023-12-11T00:17:12.924Z,99007.80
2023-12-11T00:19:46.916Z,99015.00
2023-12-11T00:22:20.549Z,99010.40
2023-12-11T00:24:54.144Z,99011.20
2023-12-11T00:27:27.989Z,99012.20
2023-12-11T00:30:05.436Z,99012.60
2023-12-11T00:32:40.292Z,99008.20
2023-12-11T00:35:14.521Z,99000.20
2023-12-11T00:37:48.112Z,99001.60
2023-12-11T00:40:21.735Z,99003.20
2023-12-11T00:42:55.665Z,98999.80
2023-12-11T00:45:33.714Z,99002.20
2023-12-11T00:48:08.855Z,99003.40
2023-12-11T00:50:42.907Z,99006.00
2023-12-11T00:53:16.903Z,99002.00
2023-12-11T00:55:50.568Z,98992.00
2023-12-11T00:58:24.490Z,98985.40
2023-12-11T01:00:58.280Z,98989.00
2023-12-11T01:03:35.906Z,98993.40
2023-12-11T01:06:12.751Z,98986.80
2023-12-11T01:08:46.717Z,98984.20
2023-12-11T01:11:20.381Z,98994.40
2023-12-11T01:13:55.429Z,98992.80
2023-12-11T01:16:34.346Z,98989.20
2023-12-11T01:19:09.293Z,98984.60
2023-12-11T01:21:43.320Z,98965.00
2023-12-11T01:24:17.962Z,98950.20
2023-12-11T01:26:51.507Z,98952.60
2023-12-11T01:29:25.133Z,98929.00
2023-12-11T01:31:58.875Z,98919.80
2023-12-11T01:34:33.374Z,98913.00
2023-12-11T01:37:07.866Z,98906.00
2023-12-11T01:39:42.213Z,98911.80
2023-12-11T01:42:15.974Z,98935.40
2023-12-11T01:44:50.119Z,98961.40
2023-12-11T01:47:23.880Z,98979.40
2023-12-11T01:49:57.802Z,98980.60
2023-12-11T01:52:32.791Z,98949.20
2023-12-11T01:55:13.631Z,98925.00
2023-12-11T01:57:49.129Z,98951.60
2023-12-11T02:00:24.315Z,98967.80
2023-12-11T02:02:58.476Z,98957.00
2023-12-11T02:05:32.511Z,98941.40
2023-12-11T02:08:07.247Z,98922.20
2023-12-11T02:10:43.586Z,98908.60
2023-12-11T02:13:17.473Z,98895.40
2023-12-11T02:15:53.228Z,98862.20
2023-12-11T02:18:26.991Z,98848.60
2023-12-11T02:21:03.374Z,98859.00
2023-12-11T02:23:51.375Z,98866.20
2023-12-11T02:26:27.777Z,98873.00
2023-12-11T02:29:01.576Z,98886.80
2023-12-11T02:31:35.428Z,98880.00
2023-12-11T02:34:12.086Z,98864.00
2023-12-11T02:37:08.044Z,98878.20
2023-12-11T02:39:41.643Z,98863.20
2023-12-11T02:42:15.727Z,98845.00
2023-12-11T02:44:49.569Z,98839.40
2023-12-11T02:47:23.230Z,98826.60
2023-12-11T02:49:56.899Z,98826.00
2023-12-11T02:52:30.761Z,98808.00
2023-12-11T02:55:04.502Z,98812.40
2023-12-11T02:57:40.435Z,98801.60
2023-12-11T03:00:14.760Z,98805.80
2023-12-11T03:02:48.966Z,98797.40
2023-12-11T03:05:22.897Z,98803.80
2023-12-11T03:07:56.567Z,98796.40
2023-12-11T03:10:31.815Z,98792.40
2023-12-11T03:13:06.356Z,98788.60
2023-12-11T03:15:40.188Z,98785.80
2023-12-11T03:18:14.117Z,98773.40
2023-12-11T03:20:50.126Z,98767.20
2023-12-11T03:23:24.133Z,98762.40
2023-12-11T03:25:57.576Z,98759.60
2023-12-11T03:28:31.169Z,98751.40
2023-12-11T03:31:04.862Z,98745.40
2023-12-11T03:33:41.001Z,98742.60
2023-12-11T03:36:15.002Z,98739.20
2023-12-11T03:38:48.570Z,98733.20
2023-12-11T03:41:22.550Z,98732.20
2023-12-11T03:43:56.115Z,98727.20
2023-12-11T03:46:30.129Z,98722.20
2023-12-11T03:49:06.056Z,98729.60
2023-12-11T03:51:42.515Z,98726.20
2023-12-11T03:54:16.371Z,98731.00
2023-12-11T03:56:54.782Z,98724.00
2023-12-11T03:59:29.014Z,98721.40
2023-12-11T04:02:03.144Z,98718.00
2023-12-11T04:04:37.185Z,98719.20
2023-12-11T04:07:13.374Z,98721.40
2023-12-11T04:09:47.330Z,98718.00
2023-12-11T04:12:22.223Z,98710.60
2023-12-11T04:14:56.030Z,98705.60
2023-12-11T04:17:30.735Z,98701.00
2023-12-11T04:20:05.043Z,98704.40
2023-12-11T04:22:41.098Z,98700.60
2023-12-11T04:25:15.807Z,98698.80
2023-12-11T04:27:50.379Z,98696.80
2023-12-11T04:30:24.301Z,98693.80
2023-12-11T04:32:59.929Z,98686.60
2023-12-11T04:35:34.840Z,98690.80
2023-12-11T04:38:09.674Z,98689.60
2023-12-11T04:40:44.329Z,98694.80
2023-12-11T04:43:21.481Z,98689.40
2023-12-11T04:45:55.431Z,98679.60
2023-12-11T04:48:29.425Z,98682.20
2023-12-11T04:51:05.537Z,98679.60
2023-12-11T04:53:39.298Z,98673.60
2023-12-11T04:56:15.190Z,98675.00
2023-12-11T04:58:49.135Z,98670.00
2023-12-11T05:01:27.545Z,98670.60
2023-12-11T05:04:04.592Z,98666.40
2023-12-11T05:06:38.532Z,98665.60
2023-12-11T05:09:12.790Z,98666.80
2023-12-11T05:11:46.717Z,98665.20
2023-12-11T05:14:26.006Z,98656.60
2023-12-11T05:16:59.979Z,98657.00
2023-12-11T05:19:33.663Z,98659.60
2023-12-11T05:22:07.420Z,98656.20
2023-12-11T05:24:42.681Z,98651.00
2023-12-11T05:27:17.935Z,98653.20
2023-12-11T05:29:51.701Z,98654.40
2023-12-11T05:32:25.697Z,98655.60
2023-12-11T05:34:59.320Z,98656.40
2023-12-11T05:37:33.153Z,98659.40
2023-12-11T05:40:21.808Z,98651.60
2023-12-11T05:42:57.794Z,98656.00
2023-12-11T05:45:31.820Z,98663.80
2023-12-11T05:48:05.820Z,98668.00
2023-12-11T05:50:41.433Z,98658.60
2023-12-11T05:53:18.892Z,98658.80
2023-12-11T05:55:52.479Z,98658.60
2023-12-11T06:09:29.294Z,98675.00
2023-12-11T06:12:31.980Z,98674.60
2023-12-11T06:16:05.300Z,98672.60
2023-12-11T06:18:49.669Z,98662.60
2023-12-11T06:22:37.284Z,98669.00
2023-12-11T06:34:08.794Z,98674.20
2023-12-11T06:37:12.228Z,98685.20
2023-12-11T06:43:58.546Z,98687.40
2023-12-11T06:46:56.649Z,98689.20
2023-12-11T06:49:58.291Z,98688.40
2023-12-11T07:51:44.713Z,98707.00
2023-12-11T07:54:22.146Z,98705.80
2023-12-11T07:57:03.975Z,98709.40
2023-12-11T07:59:38.211Z,98709.40
2023-12-11T08:02:11.940Z,98705.40
2023-12-11T08:04:45.744Z,98706.00
2023-12-11T08:07:21.087Z,98712.20
2023-12-11T08:09:54.874Z,98713.60
2023-12-11T08:12:28.590Z,98715.60
2023-12-11T08:15:02.463Z,98718.60
2023-12-11T08:17:36.522Z,98722.60
2023-12-11T08:20:18.661Z,98723.40
2023-12-11T08:22:53.270Z,98720.40
2023-12-11T08:25:26.876Z,98720.80
2023-12-11T08:28:00.900Z,98719.20
2023-12-11T08:30:39.292Z,98712.20
2023-12-11T08:33:15.305Z,98713.80
2023-12-11T08:35:49.763Z,98717.00
2023-12-11T08:38:25.736Z,98727.40
2023-12-11T08:41:00.407Z,98723.00
2023-12-11T08:43:35.116Z,98724.60
2023-12-11T08:46:09.948Z,98725.80
2023-12-11T08:48:49.284Z,98735.20
2023-12-11T08:51:24.612Z,98732.00
2023-12-11T08:53:58.440Z,98735.60
2023-12-11T08:56:39.857Z,98739.20
2023-12-11T08:59:17.386Z,98744.60
2023-12-11T09:01:51.305Z,98745.40
2023-12-11T09:04:25.311Z,98739.00
2023-12-11T09:06:59.237Z,98743.60
2023-12-11T09:09:33.692Z,98740.40
2023-12-11T09:12:15.891Z,98739.20
2023-12-11T09:14:57.418Z,98745.60
2023-12-11T09:17:31.754Z,98747.20
2023-12-11T09:20:10.102Z,98743.20
2023-12-11T09:22:45.228Z,98739.80
2023-12-11T09:25:19.673Z,98742.60
2023-12-11T09:28:11.577Z,98736.40
2023-12-11T09:31:24.503Z,98744.00
2023-12-11T09:34:41.261Z,98736.40
2023-12-11T09:37:17.275Z,98730.80
2023-12-11T09:40:02.275Z,98726.40
2023-12-11T09:42:41.790Z,98728.00
2023-12-11T09:45:25.285Z,98723.00
2023-12-11T09:48:08.859Z,98724.60
2023-12-11T09:50:49.853Z,98724.00
2023-12-11T09:53:27.375Z,98718.20
2023-12-11T09:56:02.373Z,98720.20
2023-12-11T09:58:37.942Z,98713.40
2023-12-11T10:01:15.862Z,98707.00
2023-12-11T10:03:49.861Z,98697.00
2023-12-11T10:06:26.071Z,98696.00
2023-12-11T10:08:59.786Z,98682.60
2023-12-11T10:11:50.826Z,98689.80
2023-12-11T10:14:25.217Z,98693.20
2023-12-11T10:16:59.125Z,98691.20
2023-12-11T10:19:39.002Z,98687.00
2023-12-11T10:22:29.204Z,98679.60
2023-12-11T10:25:04.817Z,98679.60
2023-12-11T10:27:38.453Z,98679.80
2023-12-11T10:30:16.278Z,98681.40
2023-12-11T10:32:50.359Z,98679.00
2023-12-11T10:35:29.312Z,98673.00
2023-12-11T10:38:07.984Z,98666.80
2023-12-11T10:40:47.051Z,98665.40
2023-12-11T10:43:21.328Z,98659.80
2023-12-11T10:45:55.733Z,98662.00
2023-12-11T10:48:32.674Z,98650.80
2023-12-11T10:51:07.514Z,98646.80
2023-12-11T10:53:41.325Z,98637.80
2023-12-11T10:56:15.898Z,98640.40
2023-12-11T10:58:51.745Z,98630.60
2023-12-11T11:01:29.246Z,98626.60
2023-12-11T11:04:04.596Z,98627.20
2023-12-11T11:06:57.730Z,98621.40
2023-12-11T11:09:51.443Z,98604.80
2023-12-11T11:12:43.555Z,98617.60
2023-12-11T11:15:30.430Z,98621.80
2023-12-11T11:18:14.928Z,98621.00
2023-12-11T11:21:21.280Z,98619.80
2023-12-11T11:23:55.076Z,98615.80
2023-12-11T11:26:39.488Z,98625.60
2023-12-11T11:29:41.674Z,98622.60
2023-12-11T11:32:16.745Z,98609.80
2023-12-11T11:34:50.880Z,98597.00
2023-12-11T11:37:54.285Z,98609.40
2023-12-11T11:40:41.775Z,98609.20
2023-12-11T11:43:17.447Z,98605.40
2023-12-11T11:45:58.094Z,98598.00
2023-12-11T11:51:38.916Z,98591.80
2023-12-11T11:54:13.097Z,98591.20
2023-12-11T11:56:51.414Z,98566.80
2023-12-11T11:59:25.234Z,98577.00
2023-12-11T12:02:00.863Z,98559.00
2023-12-11T12:04:36.743Z,98550.40
2023-12-11T12:07:11.230Z,98555.20
2023-12-11T12:09:47.046Z,98560.40
2023-12-11T12:12:21.249Z,98560.20
2023-12-11T12:15:07.495Z,98556.60
2023-12-11T12:17:41.673Z,98559.80
2023-12-11T12:20:18.779Z,98554.40
2023-12-11T12:23:04.027Z,98556.00
2023-12-11T12:25:39.024Z,98548.20
2023-12-11T12:28:17.567Z,98545.40
2023-12-11T12:30:51.478Z,98554.60
2023-12-11T12:33:27.238Z,98553.80
2023-12-11T12:36:01.923Z,98555.80
2023-12-11T12:38:36.597Z,98553.80
2023-12-11T12:41:16.161Z,98560.60
2023-12-11T12:43:49.993Z,98549.20
2023-12-11T12:46:39.139Z,98550.20
2023-12-11T12:49:15.169Z,98546.20
2023-12-11T12:51:56.209Z,98556.60
2023-12-11T12:54:48.324Z,98548.20
2023-12-11T12:57:23.017Z,98556.00
2023-12-11T12:59:58.728Z,98565.20
2023-12-11T13:02:33.215Z,98558.20
2023-12-11T13:05:08.658Z,98560.60
2023-12-11T13:07:42.478Z,98574.00
2023-12-11T13:10:19.264Z,98564.80
2023-12-11T13:12:52.995Z,98570.00
2023-12-11T13:15:26.561Z,98580.20
2023-12-11T13:18:00.232Z,98581.40
2023-12-11T13:20:35.133Z,98581.20
2023-12-11T13:23:09.142Z,98588.40
2023-12-11T13:25:43.378Z,98593.80
2023-12-11T13:28:17.152Z,98582.20
2023-12-11T13:30:51.563Z,98590.80
2023-12-11T13:33:25.353Z,98597.40
2023-12-11T13:35:59.213Z,98598.20
2023-12-11T13:38:37.116Z,98598.60
2023-12-11T13:41:12.754Z,98599.20
2023-12-11T13:43:46.392Z,98591.60
2023-12-11T13:46:20.048Z,98603.40
2023-12-11T13:48:53.827Z,98605.00
2023-12-11T13:51:28.043Z,98603.60
2023-12-11T13:54:04.378Z,98605.80
2023-12-11T13:56:38.744Z,98606.00
2023-12-11T13:59:12.794Z,98605.00
2023-12-11T14:01:48.648Z,98610.00
2023-12-11T14:04:22.892Z,98613.20
2023-12-11T14:06:57.977Z,98607.20
2023-12-11T14:09:34.340Z,98604.60
2023-12-11T14:12:11.764Z,98608.00
2023-12-11T14:14:45.646Z,98600.80
2023-12-11T14:17:19.422Z,98603.60
2023-12-11T14:19:54.192Z,98598.20
2023-12-11T14:22:28.071Z,98604.80
2023-12-11T14:25:01.826Z,98601.40
2023-12-11T14:27:36.831Z,98595.40
2023-12-11T14:30:13.297Z,98598.20
2023-12-11T14:32:47.064Z,98598.20
2023-12-11T14:35:21.977Z,98598.00
2023-12-11T14:37:55.827Z,98592.20
2023-12-11T14:40:29.822Z,98586.80
2023-12-11T14:43:03.772Z,98588.40
2023-12-11T14:45:38.228Z,98585.80
2023-12-11T14:48:13.356Z,98584.80
2023-12-11T14:50:48.076Z,98589.40
2023-12-11T14:53:21.891Z,98584.40
2023-12-11T14:55:55.975Z,98590.60
2023-12-11T14:58:34.864Z,98587.20
2023-12-11T15:01:10.075Z,98583.80
2023-12-11T15:03:44.277Z,98584.80
2023-12-11T15:06:20.330Z,98582.20
2023-12-11T15:08:54.187Z,98581.20
2023-12-11T15:11:34.543Z,98581.00
2023-12-11T15:14:09.750Z,98577.40
2023-12-11T15:16:47.240Z,98576.80
2023-12-11T15:19:21.210Z,98581.40
2023-12-11T15:21:55.448Z,98589.60
2023-12-11T15:24:29.092Z,98583.60
2023-12-11T15:27:05.145Z,98580.80
2023-12-11T15:29:40.389Z,98574.40
2023-12-11T15:32:20.528Z,98580.80
2023-12-11T15:34:54.673Z,98575.80
2023-12-11T15:37:29.187Z,98578.80
2023-12-11T15:40:08.511Z,98572.80
2023-12-11T15:42:43.689Z,98580.80
2023-12-11T15:45:18.792Z,98575.00
2023-12-11T15:48:01.449Z,98579.40
2023-12-11T15:50:37.697Z,98577.00
2023-12-11T15:53:12.257Z,98576.40
2023-12-11T15:55:45.857Z,98568.40
2023-12-11T15:58:19.493Z,98561.80
2023-12-11T16:00:53.775Z,98561.60
2023-12-11T16:03:28.089Z,98568.60
2023-12-11T16:06:03.021Z,98560.80
2023-12-11T16:08:37.640Z,98557.00
2023-12-11T16:11:15.230Z,98555.40
2023-12-11T16:13:49.336Z,98559.00
2023-12-11T16:16:23.492Z,98555.40
2023-12-11T16:18:57.773Z,98555.00
2023-12-11T16:21:31.781Z,98556.00
2023-12-11T16:24:12.823Z,98554.00
2023-12-11T16:26:49.423Z,98550.60
2023-12-11T16:29:23.460Z,98549.00
2023-12-11T16:31:58.294Z,98557.00
2023-12-11T16:34:33.735Z,98558.40
2023-12-11T16:37:08.249Z,98554.80
2023-12-11T16:39:46.320Z,98552.20
2023-12-11T16:42:23.098Z,98549.60
2023-12-11T16:44:57.393Z,98548.40
2023-12-11T16:47:33.545Z,98548.20
2023-12-11T16:50:10.129Z,98557.20
2023-12-11T16:52:44.479Z,98549.00
2023-12-11T16:55:19.249Z,98552.80
2023-12-11T16:57:53.380Z,98557.60
2023-12-11T17:00:27.360Z,98558.60
2023-12-11T17:03:03.420Z,98561.80
2023-12-11T17:05:37.154Z,98566.20
2023-12-11T17:08:11.750Z,98570.40
2023-12-11T17:10:46.049Z,98566.20
2023-12-11T17:13:19.860Z,98564.40
2023-12-11T17:15:53.587Z,98570.00
2023-12-11T17:18:27.365Z,98567.80
2023-12-11T17:21:03.694Z,98565.80
2023-12-11T17:23:39.081Z,98564.80
2023-12-11T17:26:13.732Z,98559.40
2023-12-11T17:28:48.020Z,98561.40
2023-12-11T17:31:22.209Z,98561.40
2023-12-11T17:33:56.247Z,98568.00
2023-12-11T17:36:30.323Z,98560.60
2023-12-11T17:39:05.055Z,98558.60
2023-12-11T17:41:39.767Z,98558.80
2023-12-11T17:44:13.713Z,98545.80
2023-12-11T17:46:47.785Z,98550.40
2023-12-11T17:49:24.435Z,98536.80
2023-12-11T17:51:58.744Z,98516.20
2023-12-11T17:54:32.863Z,98516.40
2023-12-11T17:57:07.998Z,98508.00
2023-12-11T17:59:43.775Z,98502.40
2023-12-11T18:02:31.256Z,98503.20
2023-12-11T18:05:09.192Z,98502.20
2023-12-11T18:07:43.941Z,98497.80
2023-12-11T18:10:20.758Z,98497.00
2023-12-11T18:12:55.319Z,98498.40
2023-12-11T18:15:30.222Z,98498.80
2023-12-11T18:18:04.261Z,98497.40
2023-12-11T18:20:47.346Z,98498.60
2023-12-11T18:23:21.766Z,98495.60
2023-12-11T18:25:55.577Z,98498.20
2023-12-11T18:28:29.850Z,98494.60
2023-12-11T18:31:05.297Z,98493.80
2023-12-11T18:33:46.615Z,98486.40
2023-12-11T18:36:20.766Z,98497.20
2023-12-11T18:38:54.827Z,98493.00
2023-12-11T18:41:28.684Z,98496.20
2023-12-11T18:44:02.360Z,98491.20
2023-12-11T18:46:36.680Z,98487.40
2023-12-11T18:49:11.572Z,98484.20
2023-12-11T18:51:45.621Z,98489.00
2023-12-11T18:54:19.427Z,98495.40
2023-12-11T18:56:53.760Z,98502.00
2023-12-11T18:59:35.088Z,98505.20
2023-12-11T19:02:09.409Z,98505.40
2023-12-11T19:04:46.395Z,98504.80
2023-12-11T19:07:22.035Z,98509.00
2023-12-11T19:09:55.774Z,98513.00
2023-12-11T19:12:29.380Z,98510.80
2023-12-11T19:15:03.245Z,98513.60
2023-12-11T19:17:37.373Z,98512.00
2023-12-11T19:20:14.797Z,98511.20
2023-12-11T19:22:48.556Z,98510.60
2023-12-11T19:25:22.250Z,98518.80
2023-12-11T19:27:55.991Z,98528.40
2023-12-11T19:30:29.769Z,98525.20
2023-12-11T19:33:06.283Z,98536.80
2023-12-11T19:35:43.032Z,98539.60
2023-12-11T19:38:31.925Z,98541.00
2023-12-11T19:41:08.401Z,98539.20
2023-12-11T19:43:42.821Z,98541.40
2023-12-11T19:46:17.355Z,98531.40
2023-12-11T19:48:52.096Z,98542.40
2023-12-11T19:51:30.420Z,98541.60
2023-12-11T19:54:04.642Z,98537.40
2023-12-11T19:56:38.939Z,98534.40
2023-12-11T19:59:17.800Z,98543.60
2023-12-11T20:01:55.160Z,98543.20
2023-12-11T20:04:47.956Z,98548.60
2023-12-11T20:07:23.829Z,98547.40
2023-12-11T20:09:58.533Z,98548.20
2023-12-11T20:12:37.260Z,98542.00
2023-12-11T20:15:14.738Z,98563.20
2023-12-11T20:17:52.929Z,98551.60
2023-12-11T20:20:27.833Z,98559.00
2023-12-11T20:23:02.164Z,98564.40
2023-12-11T20:25:36.680Z,98571.80
2023-12-11T20:28:13.013Z,98563.20
2023-12-11T20:30:48.505Z,98568.40
2023-12-11T20:33:25.027Z,98573.80
2023-12-11T20:35:59.034Z,98573.00
2023-12-11T20:38:39.135Z,98572.20
2023-12-11T20:41:22.131Z,98578.00
2023-12-11T20:43:59.248Z,98586.20
2023-12-11T20:46:33.751Z,98592.60
2023-12-11T20:49:08.182Z,98582.80
2023-12-11T20:51:45.513Z,98591.80
2023-12-11T20:54:19.319Z,98592.80
2023-12-11T20:56:54.248Z,98602.00
2023-12-11T20:59:28.026Z,98600.20
2023-12-11T21:02:02.313Z,98593.20
2023-12-11T21:04:36.553Z,98603.00
2023-12-11T21:07:11.606Z,98611.80
2023-12-11T21:09:46.106Z,98615.20
2023-12-11T21:12:20.153Z,98613.80
2023-12-11T21:14:53.751Z,98620.00
2023-12-11T21:17:27.605Z,98630.60
2023-12-11T21:20:01.849Z,98618.40
2023-12-11T21:22:35.835Z,98615.40
2023-12-11T21:25:11.122Z,98622.20
2023-12-11T21:27:45.603Z,98623.40
2023-12-11T21:30:22.022Z,98629.40
2023-12-11T21:32:55.706Z,98639.20
2023-12-11T21:35:29.329Z,98632.60
2023-12-11T21:38:03.088Z,98641.80
2023-12-11T21:40:38.082Z,98642.20
2023-12-11T21:43:12.431Z,98648.20
2023-12-11T21:45:46.380Z,98648.40
2023-12-11T21:48:22.543Z,98656.60
2023-12-11T21:50:56.601Z,98652.20
2023-12-11T21:53:30.304Z,98645.60
2023-12-11T21:56:04.250Z,98653.80
2023-12-11T21:58:38.707Z,98653.40
2023-12-11T22:01:13.059Z,98674.40
2023-12-11T22:03:47.119Z,98697.20
2023-12-11T22:06:21.061Z,98674.60
2023-12-11T22:08:54.795Z,98689.60
2023-12-11T22:11:28.512Z,98700.20
2023-12-11T22:14:02.398Z,98699.20
2023-12-11T22:16:39.573Z,98716.20
2023-12-11T22:19:14.174Z,98710.40
2023-12-11T22:21:48.204Z,98714.60
2023-12-11T22:24:24.156Z,98718.60
2023-12-11T22:26:58.596Z,98731.60
2023-12-11T22:29:32.665Z,98732.40
2023-12-11T22:32:07.838Z,98754.40
2023-12-11T22:35:13.593Z,98746.60
2023-12-11T22:37:47.266Z,98743.20
2023-12-11T22:40:21.445Z,98750.00
2023-12-11T22:42:55.924Z,98751.00
2023-12-11T22:45:29.797Z,98759.00
2023-12-11T22:48:03.466Z,98750.40
2023-12-11T22:50:38.598Z,98770.40
2023-12-11T22:53:12.451Z,98756.60
2023-12-11T22:55:46.517Z,98757.20
2023-12-11T22:58:20.691Z,98765.20
2023-12-11T23:00:55.786Z,98768.60
2023-12-11T23:03:31.760Z,98769.40
2023-12-11T23:06:05.622Z,98778.40
2023-12-11T23:08:39.450Z,98778.60
2023-12-11T23:11:13.062Z,98781.60
2023-12-11T23:13:46.778Z,98784.80
2023-12-11T23:16:26.870Z,98791.80
2023-12-11T23:19:01.752Z,98794.80
2023-12-11T23:21:35.707Z,98805.60
2023-12-11T23:24:09.984Z,98810.60
2023-12-11T23:26:44.164Z,98813.00
2023-12-11T23:29:17.889Z,98811.40
2023-12-11T23:31:54.152Z,98816.80
2023-12-11T23:34:28.214Z,98818.80
2023-12-11T23:37:02.819Z,98818.80
2023-12-11T23:39:36.899Z,98828.40
2023-12-11T23:42:11.040Z,98825.60
2023-12-11T23:44:44.581Z,98827.60
2023-12-11T23:47:19.024Z,98833.00
2023-12-11T23:49:53.286Z,98833.40
2023-12-11T23:52:27.222Z,98838.00
2023-12-11T23:55:00.942Z,98842.80
2023-12-11T23:57:34.862Z,98848.80
